»·PEaware :: SWA768 KPHX-KABQ

SWA768 :: KPHX-KABQ

FLIGHT INFORMATION

Flight Status: Arrived
Operator:
Southwest Airlines
More flights by this operator :: More flights under this callsign
Pilot: Anonymous 34646 (34646)
Aircraft: BOEING 737-700
(B737)
More flights by this aircraft type
Origin: KPHX Phoenix Sky Harbor Intl
United States
Destination: KABQ Albuquerque Intl Sunport
United States
More flights between these airports :: More routes between these airports
Route: FORPE1 FORPE KRKEE KRKEE3
File this flight plan on PilotEdge
Remarks: RMK / SIMBRIEF
Altitude:
(Current/Filed)
37,000ft
Speed:
(Current/Filed)
446kts
Departed: 24-May-21 09:10 PM
Arrived: 24-May-21 09:55 PM
Distance/Time
Traveled:
285nm/0:45
Distance/Time
To Go:
Arrived

Flight Plot

Page will automatically refresh every two minutes.

Flight plan parsing failed; only flown route is shown


Map Options




Map Legend


Flown Route
Filed Route
Departure Airport
Arrival Airport
Navaid (VOR, NDB)
Fix

Horizontal Profiles

Position Reports

Time Latitude Longitude Heading Altitude Ground
Speed
24-May-21 20:52 33.433392 -111.994092 343 1143ft 0kts
24-May-21 20:53 33.433392 -111.994092 343 1143ft 0kts
24-May-21 20:54 33.433392 -111.994092 343 1143ft 0kts
24-May-21 20:55 33.433392 -111.994092 343 1143ft 0kts
24-May-21 20:56 33.433392 -111.994092 343 1143ft 0kts
24-May-21 20:56 33.433392 -111.994092 343 1143ft 0kts
24-May-21 20:57 33.433392 -111.994092 343 1143ft 0kts
24-May-21 20:59 33.433196 -111.994023 343 1143ft 2kts
24-May-21 21:00 33.432707 -111.993849 342 1143ft 0kts
24-May-21 21:01 33.432707 -111.993849 342 1143ft 0kts
24-May-21 21:01 33.432707 -111.993849 342 1143ft 0kts
24-May-21 21:02 33.432707 -111.993849 342 1143ft 0kts
24-May-21 21:03 33.432833 -111.997191 269 1143ft 19kts
24-May-21 21:05 33.432840 -112.006545 270 1143ft 27kts
24-May-21 21:06 33.432846 -112.015414 270 1143ft 23kts
24-May-21 21:06 33.432834 -112.022015 270 1143ft 22kts
24-May-21 21:07 33.432281 -112.027010 176 1143ft 6kts
24-May-21 21:08 33.432223 -112.027006 176 1143ft 0kts
24-May-21 21:09 33.431021 -112.020199 90 1143ft 95kts
24-May-21 21:10 33.431906 -111.968511 87 2885ft 183kts
24-May-21 21:11 33.435571 -111.896370 87 5420ft 236kts
24-May-21 21:12 33.461758 -111.811878 62 8238ft 296kts
24-May-21 21:13 33.500010 -111.721598 62 11724ft 324kts
24-May-21 21:14 33.543307 -111.617278 62 14479ft 366kts
24-May-21 21:15 33.590600 -111.504206 63 17579ft 391kts
24-May-21 21:16 33.640067 -111.383734 62 20500ft 413kts
24-May-21 21:17 33.690676 -111.258174 66 21575ft 425kts
24-May-21 21:18 33.730081 -111.120874 70 23767ft 448kts
24-May-21 21:19 33.770331 -110.976615 70 25826ft 463kts
24-May-21 21:20 33.812390 -110.828139 69 27659ft 475kts
24-May-21 21:21 33.855757 -110.675674 69 29271ft 487kts
24-May-21 21:22 33.899573 -110.519739 69 30721ft 496kts
24-May-21 21:23 33.943174 -110.363508 69 32592ft 490kts
24-May-21 21:24 33.986230 -110.208366 69 34247ft 486kts
24-May-21 21:25 34.028841 -110.053970 69 35603ft 485kts
24-May-21 21:26 34.071241 -109.899480 69 36772ft 485kts
24-May-21 21:27 34.113495 -109.744663 70 37264ft 487kts
24-May-21 21:28 34.155443 -109.590107 70 37249ft 484kts
24-May-21 21:29 34.197159 -109.435538 70 37232ft 484kts
24-May-21 21:30 34.238654 -109.280919 70 37208ft 484kts
24-May-21 21:31 34.280008 -109.125953 70 37211ft 484kts
24-May-21 21:32 34.321048 -108.971267 71 37224ft 483kts
24-May-21 21:33 34.362028 -108.815927 71 37227ft 483kts
24-May-21 21:34 34.402657 -108.661031 71 37226ft 478kts
24-May-21 21:35 34.440441 -108.516178 71 37222ft 438kts
24-May-21 21:36 34.477694 -108.372573 71 35303ft 458kts
24-May-21 21:37 34.517005 -108.220183 71 31308ft 482kts
24-May-21 21:38 34.556223 -108.068523 71 28700ft 459kts
24-May-21 21:39 34.593011 -107.923482 72 25081ft 439kts
24-May-21 21:40 34.630576 -107.787578 64 23215ft 413kts
24-May-21 21:41 34.682853 -107.666467 61 21169ft 398kts
24-May-21 21:42 34.734021 -107.548806 62 19148ft 387kts
24-May-21 21:43 34.783004 -107.434229 62 17030ft 380kts
24-May-21 21:44 34.831027 -107.321483 62 14980ft 369kts
24-May-21 21:45 34.876988 -107.211532 62 12939ft 360kts
24-May-21 21:46 34.896358 -107.103964 93 11773ft 316kts
24-May-21 21:47 34.889771 -106.998049 94 10045ft 309kts
24-May-21 21:48 34.883459 -106.898679 94 8780ft 289kts
24-May-21 21:49 34.878361 -106.815124 83 8095ft 212kts
24-May-21 21:50 34.913391 -106.761132 42 7710ft 207kts
24-May-21 21:51 34.952194 -106.715076 42 7306ft 177kts
24-May-21 21:52 34.985357 -106.675185 44 6431ft 158kts
24-May-21 21:53 35.015042 -106.639346 42 5565ft 146kts
24-May-21 21:54 35.035060 -106.615286 31 5320ft 33kts
24-May-21 21:55 35.037540 -106.614313 14 5320ft 2kts
24-May-21 21:56 35.040095 -106.613855 359 5320ft 15kts
24-May-21 21:57 35.044639 -106.613772 0 5320ft 16kts
24-May-21 21:58 35.046867 -106.614481 341 5320ft 2kts
24-May-21 21:59 35.046935 -106.614509 341 5320ft 0kts
24-May-21 22:00 35.046935 -106.614509 341 5320ft 0kts
24-May-21 22:01 35.046935 -106.614509 341 5320ft 0kts

Navigation Log

Ident Type
Flight plan parsing failed, navigation log unavailable